createdAt,value
2023-04-26T00:02:18.035Z,4.45
2023-04-26T00:04:46.402Z,4.43
2023-04-26T00:07:15.887Z,4.35
2023-04-26T00:09:44.634Z,4.26
2023-04-26T00:12:12.947Z,4.27
2023-04-26T00:14:40.816Z,4.25
2023-04-26T00:17:08.840Z,4.22
2023-04-26T00:19:36.991Z,4.21
2023-04-26T00:22:05.547Z,4.17
2023-04-26T00:24:34.865Z,4.13
2023-04-26T00:27:08.632Z,4.10
2023-04-26T00:29:36.383Z,4.10
2023-04-26T00:32:04.625Z,4.09
2023-04-26T00:34:36.573Z,4.07
2023-04-26T00:37:05.330Z,4.09
2023-04-26T00:39:34.437Z,4.08
2023-04-26T00:42:02.200Z,4.08
2023-04-26T00:44:29.936Z,4.07
2023-04-26T00:46:57.746Z,4.06
2023-04-26T00:49:26.566Z,4.02
2023-04-26T00:51:54.991Z,3.99
2023-04-26T00:54:22.949Z,3.97
2023-04-26T00:56:53.314Z,3.91
2023-04-26T00:59:21.566Z,3.83
2023-04-26T01:01:49.483Z,3.77
2023-04-26T01:04:18.090Z,3.79
2023-04-26T01:06:46.623Z,3.77
2023-04-26T01:09:15.699Z,3.74
2023-04-26T01:11:45.081Z,3.71
2023-04-26T01:14:15.923Z,3.66
2023-04-26T01:16:47.019Z,3.60
2023-04-26T01:19:15.427Z,3.60
2023-04-26T01:21:43.720Z,3.54
2023-04-26T01:24:13.803Z,3.43
2023-04-26T01:26:45.665Z,3.36
2023-04-26T01:29:18.404Z,3.33
2023-04-26T01:31:46.838Z,3.36
2023-04-26T01:34:14.935Z,3.40
2023-04-26T01:36:42.806Z,3.44
2023-04-26T01:39:12.008Z,3.49
2023-04-26T01:41:39.752Z,3.54
2023-04-26T01:44:07.653Z,3.59
2023-04-26T01:46:35.526Z,3.62
2023-04-26T01:49:03.353Z,3.65
2023-04-26T01:51:31.324Z,3.67
2023-04-26T01:53:59.236Z,3.64
2023-04-26T01:56:28.354Z,3.59
2023-04-26T01:58:57.411Z,3.51
2023-04-26T02:01:25.572Z,3.47
2023-04-26T02:03:53.433Z,3.42
2023-04-26T02:06:21.428Z,3.41
2023-04-26T02:08:49.459Z,3.41
2023-04-26T02:11:17.435Z,3.39
2023-04-26T02:13:46.589Z,3.39
2023-04-26T02:16:16.184Z,3.36
2023-04-26T02:18:44.471Z,3.34
2023-04-26T02:21:12.466Z,3.31
2023-04-26T02:23:40.652Z,3.30
2023-04-26T02:26:08.419Z,3.25
2023-04-26T02:28:36.789Z,3.20
2023-04-26T02:31:06.258Z,3.14
2023-04-26T02:33:34.250Z,3.11
2023-04-26T02:36:04.042Z,3.07
2023-04-26T02:38:31.869Z,3.04
2023-04-26T02:41:00.475Z,2.98
2023-04-26T02:43:28.494Z,2.96
2023-04-26T02:45:58.687Z,2.97
2023-04-26T02:48:27.841Z,2.92
2023-04-26T02:50:55.640Z,2.88
2023-04-26T02:53:23.394Z,2.81
2023-04-26T02:55:51.408Z,2.81
2023-04-26T02:58:19.317Z,2.85
2023-04-26T03:00:48.358Z,2.87
2023-04-26T03:03:17.307Z,2.90
2023-04-26T03:05:46.597Z,2.94
2023-04-26T03:08:14.328Z,2.97
2023-04-26T03:10:42.132Z,2.96
2023-04-26T03:13:09.860Z,2.95
2023-04-26T03:15:37.637Z,2.92
2023-04-26T03:18:05.727Z,2.91
2023-04-26T03:20:33.818Z,2.86
2023-04-26T03:23:03.013Z,2.79
2023-04-26T03:25:30.979Z,2.71
2023-04-26T03:27:58.727Z,2.72
2023-04-26T03:30:26.861Z,2.75
2023-04-26T03:32:54.819Z,2.76
2023-04-26T03:35:22.721Z,2.76
2023-04-26T03:37:51.819Z,2.77
2023-04-26T03:40:22.515Z,2.79
2023-04-26T03:42:50.419Z,2.80
2023-04-26T03:45:18.396Z,2.81
2023-04-26T03:47:46.607Z,2.85
2023-04-26T03:50:14.398Z,2.85
2023-04-26T03:52:42.166Z,2.86
2023-04-26T03:55:11.832Z,2.83
2023-04-26T03:57:41.084Z,2.82
2023-04-26T04:00:13.478Z,2.80
2023-04-26T04:02:41.358Z,2.82
2023-04-26T04:05:10.306Z,2.83
2023-04-26T04:07:38.100Z,2.82
2023-04-26T04:10:07.388Z,2.83
2023-04-26T04:12:34.980Z,2.78
2023-04-26T04:15:04.569Z,2.85
2023-04-26T04:17:32.350Z,2.84
2023-04-26T04:20:00.129Z,2.81
2023-04-26T04:22:27.920Z,2.80
2023-04-26T04:24:55.917Z,2.80
2023-04-26T04:27:23.688Z,2.82
2023-04-26T04:29:51.470Z,2.85
2023-04-26T04:32:20.978Z,2.87
2023-04-26T04:34:49.656Z,2.90
2023-04-26T04:37:18.197Z,2.92
2023-04-26T04:39:46.225Z,2.92
2023-04-26T04:42:14.084Z,2.92
2023-04-26T04:44:43.062Z,3.01
2023-04-26T04:47:10.869Z,3.03
2023-04-26T04:49:40.356Z,3.03
2023-04-26T04:52:08.174Z,3.05
2023-04-26T04:54:36.132Z,3.11
2023-04-26T04:57:04.413Z,3.16
2023-04-26T04:59:33.313Z,3.22
2023-04-26T05:02:01.609Z,3.28
2023-04-26T05:04:29.681Z,3.42
2023-04-26T05:06:58.975Z,3.52
2023-04-26T05:09:26.848Z,3.57
2023-04-26T05:11:54.747Z,3.60
2023-04-26T05:14:22.495Z,3.62
2023-04-26T05:16:50.373Z,3.67
2023-04-26T05:19:18.203Z,3.73
2023-04-26T05:21:46.003Z,3.81
2023-04-26T05:24:15.084Z,3.91
2023-04-26T05:26:42.946Z,4.00
2023-04-26T05:29:10.678Z,4.13
2023-04-26T05:31:38.455Z,4.25
2023-04-26T05:34:06.375Z,4.37
2023-04-26T05:36:34.147Z,4.49
2023-04-26T05:39:01.913Z,4.58
2023-04-26T05:41:31.000Z,4.67
2023-04-26T05:43:58.799Z,4.75
2023-04-26T05:46:26.944Z,4.84
2023-04-26T05:48:54.800Z,4.95
2023-04-26T05:51:22.629Z,5.09
2023-04-26T05:53:51.144Z,5.20
2023-04-26T05:56:19.100Z,5.30
2023-04-26T05:58:49.138Z,5.41
2023-04-26T06:01:16.963Z,5.51
2023-04-26T06:03:45.939Z,5.62
2023-04-26T06:06:15.353Z,5.72
2023-04-26T06:08:44.055Z,5.82
2023-04-26T06:11:11.787Z,5.95
2023-04-26T06:13:39.625Z,6.07
2023-04-26T06:16:09.174Z,6.20
2023-04-26T06:18:37.058Z,6.35
2023-04-26T06:21:05.212Z,6.52
2023-04-26T06:23:33.021Z,6.63
2023-04-26T06:26:00.837Z,6.76
2023-04-26T06:28:28.884Z,6.88
2023-04-26T06:30:56.673Z,6.98
2023-04-26T06:33:25.916Z,7.13
2023-04-26T06:35:53.510Z,7.20
2023-04-26T06:38:21.447Z,7.48
2023-04-26T06:40:49.248Z,7.69
2023-04-26T06:43:17.061Z,7.92
2023-04-26T06:45:45.042Z,8.09
2023-04-26T06:48:13.015Z,8.33
2023-04-26T06:50:42.315Z,8.55
2023-04-26T06:53:10.076Z,8.76
2023-04-26T06:55:37.844Z,8.92
2023-04-26T06:58:05.719Z,9.05
2023-04-26T07:00:33.702Z,9.13
2023-04-26T07:03:01.688Z,9.17
2023-04-26T07:05:29.683Z,9.23
2023-04-26T07:07:59.087Z,9.21
2023-04-26T07:10:27.818Z,9.16
2023-04-26T07:12:55.902Z,9.11
2023-04-26T07:15:23.882Z,9.12
2023-04-26T07:17:51.814Z,9.18
2023-04-26T07:20:22.736Z,9.33
2023-04-26T07:22:50.804Z,9.48
2023-04-26T07:25:20.263Z,9.68
2023-04-26T07:27:48.030Z,9.83
2023-04-26T07:30:16.277Z,9.93
2023-04-26T07:32:44.226Z,10.05
2023-04-26T07:35:16.258Z,10.17
2023-04-26T07:37:46.439Z,10.42
2023-04-26T07:40:15.234Z,10.70
2023-04-26T07:42:44.438Z,10.87
2023-04-26T07:45:12.637Z,10.84
2023-04-26T07:47:40.622Z,11.02
2023-04-26T07:50:10.104Z,11.00
2023-04-26T07:52:37.969Z,11.14
2023-04-26T07:55:06.704Z,11.33
2023-04-26T07:57:34.616Z,11.63
2023-04-26T08:00:07.888Z,12.04
2023-04-26T08:02:44.472Z,11.86
2023-04-26T08:05:13.639Z,11.78
2023-04-26T08:07:41.806Z,11.66
2023-04-26T08:10:10.468Z,11.68
2023-04-26T08:12:39.522Z,11.87
2023-04-26T08:15:09.915Z,11.85
2023-04-26T08:17:37.829Z,11.81
2023-04-26T08:20:07.123Z,11.80
2023-04-26T08:22:34.875Z,11.88
2023-04-26T08:25:02.724Z,12.07
2023-04-26T08:27:31.904Z,12.65
2023-04-26T08:29:59.527Z,12.89
2023-04-26T08:32:28.817Z,13.03
2023-04-26T08:34:56.613Z,12.92
2023-04-26T08:37:24.440Z,12.67
2023-04-26T08:39:52.242Z,12.43
2023-04-26T08:42:20.403Z,12.45
2023-04-26T08:44:48.275Z,12.39
2023-04-26T08:47:18.254Z,12.39
2023-04-26T08:49:50.330Z,12.37
2023-04-26T08:52:22.912Z,12.35
2023-04-26T08:54:52.100Z,12.33
2023-04-26T08:57:19.664Z,12.17
2023-04-26T08:59:47.688Z,12.34
2023-04-26T09:02:19.352Z,12.39
2023-04-26T09:04:49.423Z,12.48
2023-04-26T09:07:22.132Z,12.73
2023-04-26T09:09:51.545Z,13.29
2023-04-26T09:12:21.265Z,13.45
2023-04-26T09:14:49.378Z,13.31
2023-04-26T09:17:27.318Z,13.12
2023-04-26T09:19:56.784Z,13.07
2023-04-26T09:22:32.506Z,12.87
2023-04-26T09:25:00.900Z,12.70
2023-04-26T09:27:36.151Z,12.45
2023-04-26T09:30:07.835Z,12.30
2023-04-26T09:32:46.328Z,12.15
2023-04-26T09:35:27.119Z,12.20
2023-04-26T09:38:05.634Z,12.35
2023-04-26T09:40:37.736Z,12.76
2023-04-26T09:43:07.420Z,13.41
2023-04-26T09:45:45.943Z,14.07
2023-04-26T09:48:18.309Z,14.63
2023-04-26T09:50:47.572Z,14.69
2023-04-26T09:53:30.959Z,14.59
2023-04-26T09:55:59.661Z,14.54
2023-04-26T09:58:27.552Z,14.19
2023-04-26T10:00:56.078Z,13.97
2023-04-26T10:03:24.410Z,13.69
2023-04-26T10:05:54.050Z,13.24
2023-04-26T10:08:21.791Z,12.81
2023-04-26T10:10:50.473Z,12.56
2023-04-26T10:13:19.811Z,12.45
2023-04-26T10:15:48.885Z,12.56
2023-04-26T10:18:17.303Z,12.74
2023-04-26T10:20:47.886Z,12.91
2023-04-26T10:23:21.298Z,13.00
2023-04-26T10:25:49.614Z,13.07
2023-04-26T10:28:18.343Z,13.09
2023-04-26T10:30:55.998Z,12.98
2023-04-26T10:33:24.626Z,12.76
2023-04-26T10:36:10.009Z,12.47
2023-04-26T10:38:40.812Z,12.42
2023-04-26T10:41:33.998Z,12.20
2023-04-26T10:44:38.597Z,12.17
2023-04-26T10:47:07.575Z,12.28
2023-04-26T10:49:46.968Z,12.28
2023-04-26T10:52:16.369Z,12.51
2023-04-26T10:54:53.401Z,12.62
2023-04-26T10:57:21.656Z,12.72
2023-04-26T11:00:22.210Z,12.77
2023-04-26T11:02:59.074Z,12.80
2023-04-26T11:05:55.411Z,12.86
2023-04-26T11:08:27.087Z,13.01
2023-04-26T11:11:09.974Z,13.03
2023-04-26T11:13:39.026Z,13.05
2023-04-26T11:16:08.070Z,12.96
2023-04-26T11:18:36.716Z,12.51
2023-04-26T11:21:06.306Z,12.54
2023-04-26T11:23:34.278Z,12.51
2023-04-26T11:26:04.947Z,12.63
2023-04-26T11:28:34.422Z,12.85
2023-04-26T11:31:02.606Z,13.10
2023-04-26T11:33:31.006Z,13.28
2023-04-26T11:35:59.583Z,13.24
2023-04-26T11:38:28.889Z,13.11
2023-04-26T11:40:58.059Z,13.07
2023-04-26T11:43:36.472Z,13.14
2023-04-26T11:46:04.779Z,13.33
2023-04-26T11:48:33.584Z,13.48
2023-04-26T11:51:04.080Z,13.65
2023-04-26T11:53:38.557Z,13.75
2023-04-26T11:56:07.647Z,13.99
2023-04-26T11:58:36.945Z,14.17
2023-04-26T12:01:05.343Z,14.26
2023-04-26T12:03:35.410Z,14.31
2023-04-26T12:06:03.911Z,14.32
2023-04-26T12:08:33.625Z,14.14
2023-04-26T12:11:02.496Z,14.07
2023-04-26T12:13:30.564Z,14.02
2023-04-26T12:15:59.865Z,14.00
2023-04-26T12:18:31.666Z,13.98
2023-04-26T12:21:00.072Z,13.95
2023-04-26T12:23:28.223Z,14.10
2023-04-26T12:25:57.446Z,14.32
2023-04-26T12:28:25.546Z,14.56
2023-04-26T12:30:53.503Z,14.94
2023-04-26T12:33:25.081Z,15.29
2023-04-26T12:35:52.956Z,15.40
2023-04-26T12:38:21.604Z,15.37
2023-04-26T12:40:49.506Z,15.31
2023-04-26T12:43:17.736Z,15.22
2023-04-26T12:45:46.101Z,15.13
2023-04-26T12:48:14.139Z,15.10
2023-04-26T12:50:44.261Z,15.28
2023-04-26T12:53:12.469Z,15.44
2023-04-26T12:55:40.278Z,15.29
2023-04-26T12:58:08.078Z,15.09
2023-04-26T13:00:35.923Z,15.06
2023-04-26T13:03:04.077Z,15.12
2023-04-26T13:05:32.317Z,15.18
2023-04-26T13:08:02.232Z,15.15
2023-04-26T13:10:30.078Z,15.20
2023-04-26T13:12:58.931Z,15.19
2023-04-26T13:15:26.897Z,15.12
2023-04-26T13:17:55.082Z,15.06
2023-04-26T13:20:25.490Z,15.07
2023-04-26T13:22:54.032Z,15.10
2023-04-26T13:25:23.458Z,15.16
2023-04-26T13:27:53.591Z,15.17
2023-04-26T13:30:21.454Z,15.12
2023-04-26T13:32:50.484Z,15.29
2023-04-26T13:35:18.326Z,15.40
2023-04-26T13:37:46.405Z,15.51
2023-04-26T13:40:14.444Z,15.73
2023-04-26T13:42:43.956Z,15.96
2023-04-26T13:47:43.415Z,15.98
2023-04-26T13:50:11.840Z,15.86
2023-04-26T13:52:39.664Z,15.88
2023-04-26T13:55:08.999Z,15.76
2023-04-26T13:57:36.956Z,15.71
2023-04-26T14:00:08.709Z,15.65
2023-04-26T14:02:36.723Z,15.49
2023-04-26T14:05:05.542Z,15.28
2023-04-26T14:07:33.564Z,15.00
2023-04-26T14:10:01.901Z,14.86
2023-04-26T14:12:30.499Z,14.81
2023-04-26T14:14:58.351Z,14.79
2023-04-26T14:17:29.064Z,15.02
2023-04-26T14:19:57.336Z,15.44
2023-04-26T14:22:25.803Z,15.59
2023-04-26T14:24:53.582Z,15.51
2023-04-26T14:27:21.486Z,15.38
2023-04-26T14:29:49.285Z,15.35
2023-04-26T14:32:17.072Z,15.28
2023-04-26T14:34:46.244Z,15.15
2023-04-26T14:37:14.054Z,15.03
2023-04-26T14:39:42.032Z,15.03
2023-04-26T14:42:09.911Z,15.07
2023-04-26T14:44:37.722Z,15.05
2023-04-26T14:47:05.672Z,14.96
2023-04-26T14:49:33.459Z,14.82
2023-04-26T14:52:02.604Z,14.79
2023-04-26T14:54:30.192Z,14.60
2023-04-26T14:56:58.220Z,14.69
2023-04-26T14:59:26.107Z,14.68
2023-04-26T15:01:54.609Z,14.50
2023-04-26T15:04:22.734Z,14.30
2023-04-26T15:06:50.903Z,14.20
2023-04-26T15:09:20.839Z,14.20
2023-04-26T15:11:48.610Z,14.15
2023-04-26T15:14:16.438Z,14.06
2023-04-26T15:16:45.215Z,13.86
2023-04-26T15:19:13.400Z,13.60
2023-04-26T15:21:41.247Z,13.25
2023-04-26T15:24:09.998Z,13.09
2023-04-26T15:26:39.429Z,13.14
2023-04-26T15:29:07.595Z,13.16
2023-04-26T15:31:35.704Z,13.24
2023-04-26T15:34:03.828Z,13.23
2023-04-26T15:36:31.988Z,13.11
2023-04-26T15:38:59.824Z,13.08
2023-04-26T15:41:27.593Z,13.10
2023-04-26T15:43:56.831Z,13.13
2023-04-26T15:46:24.441Z,12.94
2023-04-26T15:48:52.423Z,13.11
2023-04-26T15:51:20.170Z,13.17
2023-04-26T15:53:47.946Z,13.14
2023-04-26T15:56:16.117Z,13.11
2023-04-26T15:58:44.675Z,13.08
2023-04-26T16:01:13.902Z,13.00
2023-04-26T16:03:45.566Z,12.95
2023-04-26T16:06:15.353Z,12.97
2023-04-26T16:08:43.127Z,13.00
2023-04-26T16:11:11.184Z,13.01
2023-04-26T16:13:39.119Z,13.02
2023-04-26T16:16:08.601Z,12.97
2023-04-26T16:18:39.539Z,12.95
2023-04-26T16:21:09.490Z,12.99
2023-04-26T16:23:37.740Z,13.04
2023-04-26T16:26:05.799Z,13.06
2023-04-26T16:28:33.678Z,13.11
2023-04-26T16:31:01.564Z,13.11
2023-04-26T16:33:29.397Z,13.04
2023-04-26T16:35:58.790Z,12.96
2023-04-26T16:38:26.823Z,12.93
2023-04-26T16:40:58.040Z,12.98
2023-04-26T16:43:26.857Z,13.02
2023-04-26T16:45:59.213Z,13.00
2023-04-26T16:48:27.238Z,12.92
2023-04-26T16:50:55.271Z,12.81
2023-04-26T16:53:24.524Z,12.77
2023-04-26T16:55:52.360Z,12.76
2023-04-26T16:58:20.546Z,12.76
2023-04-26T17:00:48.420Z,12.71
2023-04-26T17:03:16.765Z,12.66
2023-04-26T17:05:46.889Z,12.61
2023-04-26T17:08:14.922Z,12.57
2023-04-26T17:10:44.515Z,12.49
2023-04-26T17:13:12.771Z,12.45
2023-04-26T17:15:41.141Z,12.39
2023-04-26T17:18:09.569Z,12.38
2023-04-26T17:20:37.815Z,12.34
2023-04-26T17:23:05.687Z,12.33
2023-04-26T17:25:33.531Z,12.34
2023-04-26T17:28:02.772Z,12.30
2023-04-26T17:30:30.680Z,12.24
2023-04-26T17:32:58.604Z,12.11
2023-04-26T17:35:26.638Z,12.05
2023-04-26T17:37:54.483Z,12.04
2023-04-26T17:40:22.283Z,11.99
2023-04-26T17:42:50.386Z,11.91
2023-04-26T17:45:19.569Z,11.82
2023-04-26T17:47:47.248Z,11.63
2023-04-26T17:50:15.661Z,11.66
2023-04-26T17:52:43.499Z,11.59
2023-04-26T17:55:11.313Z,11.54
2023-04-26T17:57:39.116Z,11.49
2023-04-26T18:00:08.544Z,11.42
2023-04-26T18:02:38.205Z,11.39
2023-04-26T18:05:08.523Z,11.35
2023-04-26T18:07:36.327Z,11.30
2023-04-26T18:10:06.005Z,11.27
2023-04-26T18:12:33.772Z,11.25
2023-04-26T18:15:01.705Z,11.23
2023-04-26T18:17:29.557Z,11.22
2023-04-26T18:19:58.784Z,11.16
2023-04-26T18:22:26.905Z,11.04
2023-04-26T18:24:54.714Z,11.04
2023-04-26T18:27:22.522Z,10.99
2023-04-26T18:29:50.648Z,10.96
2023-04-26T18:32:18.544Z,10.89
2023-04-26T18:34:46.626Z,10.85
2023-04-26T18:37:15.830Z,10.81
2023-04-26T18:39:43.436Z,10.67
2023-04-26T18:42:11.235Z,10.65
2023-04-26T18:44:39.079Z,10.60
2023-04-26T18:47:06.869Z,10.52
2023-04-26T18:49:34.793Z,10.46
2023-04-26T18:52:02.690Z,10.38
2023-04-26T18:54:33.157Z,10.29
2023-04-26T18:57:03.275Z,10.21
2023-04-26T18:59:31.531Z,10.13
2023-04-26T19:01:59.767Z,10.07
2023-04-26T19:04:27.658Z,10.02
2023-04-26T19:06:55.710Z,10.01
2023-04-26T19:09:23.581Z,9.97
2023-04-26T19:11:52.699Z,9.93
2023-04-26T19:14:20.530Z,9.90
2023-04-26T19:16:48.585Z,9.87
2023-04-26T19:19:16.396Z,9.85
2023-04-26T19:21:44.280Z,9.85
2023-04-26T19:24:12.295Z,9.87
2023-04-26T19:26:40.131Z,9.90
2023-04-26T19:29:10.064Z,9.92
2023-04-26T19:31:37.913Z,9.93
2023-04-26T19:34:05.819Z,9.92
2023-04-26T19:36:34.774Z,9.89
2023-04-26T19:39:02.612Z,9.86
2023-04-26T19:41:30.438Z,9.86
2023-04-26T19:43:58.264Z,9.85
2023-04-26T19:46:27.574Z,9.84
2023-04-26T19:48:55.229Z,9.76
2023-04-26T19:51:23.033Z,9.82
2023-04-26T19:53:50.984Z,9.82
2023-04-26T19:56:18.832Z,9.81
2023-04-26T19:58:47.267Z,9.80
2023-04-26T20:01:15.143Z,9.76
2023-04-26T20:03:44.443Z,9.73
2023-04-26T20:06:14.069Z,9.70
2023-04-26T20:08:41.931Z,9.60
2023-04-26T20:11:14.733Z,9.63
2023-04-26T20:13:42.906Z,9.62
2023-04-26T20:16:11.385Z,9.59
2023-04-26T20:18:39.399Z,9.56
2023-04-26T20:21:08.596Z,9.56
2023-04-26T20:23:36.520Z,9.54
2023-04-26T20:26:04.357Z,9.55
2023-04-26T20:28:32.256Z,9.55
2023-04-26T20:31:00.124Z,9.57
2023-04-26T20:33:28.080Z,9.57
2023-04-26T20:35:58.100Z,9.59
2023-04-26T20:38:27.331Z,9.59
2023-04-26T20:40:54.990Z,9.48
2023-04-26T20:43:22.793Z,9.50
2023-04-26T20:45:51.692Z,9.45
2023-04-26T20:48:19.528Z,9.42
2023-04-26T20:50:47.350Z,9.38
2023-04-26T20:53:15.155Z,9.33
2023-04-26T20:55:44.323Z,9.27
2023-04-26T20:58:12.192Z,9.21
2023-04-26T21:00:40.351Z,9.13
2023-04-26T21:03:08.506Z,9.07
2023-04-26T21:05:36.880Z,8.99
2023-04-26T21:08:04.716Z,8.89
2023-04-26T21:10:32.496Z,8.79
2023-04-26T21:13:01.730Z,8.75
2023-04-26T21:15:29.386Z,8.65
2023-04-26T21:17:57.259Z,8.70
2023-04-26T21:20:25.118Z,8.67
2023-04-26T21:22:52.919Z,8.63
2023-04-26T21:25:20.739Z,8.62
2023-04-26T21:27:48.797Z,8.60
2023-04-26T21:30:18.242Z,8.57
2023-04-26T21:32:46.029Z,8.52
2023-04-26T21:35:13.850Z,8.47
2023-04-26T21:37:41.593Z,8.40
2023-04-26T21:40:12.463Z,8.32
2023-04-26T21:42:40.709Z,8.22
2023-04-26T21:45:10.195Z,8.15
2023-04-26T21:47:39.369Z,8.14
2023-04-26T21:50:07.915Z,8.15
2023-04-26T21:52:35.728Z,8.15
2023-04-26T21:55:03.860Z,8.14
2023-04-26T21:57:31.678Z,8.14
2023-04-26T21:59:59.486Z,8.10
2023-04-26T22:02:27.478Z,8.05
2023-04-26T22:04:56.909Z,8.00
2023-04-26T22:07:24.460Z,7.90
2023-04-26T22:09:52.268Z,7.92
2023-04-26T22:12:20.054Z,7.90
2023-04-26T22:14:47.794Z,7.88
2023-04-26T22:17:15.531Z,7.88
2023-04-26T22:19:43.262Z,7.87
2023-04-26T22:22:12.431Z,7.86
2023-04-26T22:24:40.240Z,7.85
2023-04-26T22:27:07.958Z,7.83
2023-04-26T22:29:35.783Z,7.82
2023-04-26T22:32:03.612Z,7.80
2023-04-26T22:34:31.434Z,7.78
2023-04-26T22:37:06.244Z,7.75
2023-04-26T22:39:42.636Z,7.72
2023-04-26T22:42:10.392Z,7.67
2023-04-26T22:44:38.183Z,7.61
2023-04-26T22:47:06.293Z,7.53
2023-04-26T22:49:34.099Z,7.36
2023-04-26T22:52:07.894Z,7.12
2023-04-26T22:54:39.738Z,6.87
2023-04-26T22:57:08.856Z,6.69
2023-04-26T22:59:36.661Z,6.52
2023-04-26T23:02:07.380Z,6.37
2023-04-26T23:04:35.169Z,6.24
2023-04-26T23:07:03.127Z,6.12
2023-04-26T23:09:31.064Z,6.04
2023-04-26T23:11:59.747Z,5.95
2023-04-26T23:14:29.662Z,5.90
2023-04-26T23:16:58.609Z,5.92
2023-04-26T23:19:26.424Z,5.97
2023-04-26T23:21:54.239Z,5.98
2023-04-26T23:24:22.084Z,5.97
2023-04-26T23:26:49.907Z,5.95
2023-04-26T23:29:17.695Z,5.90
2023-04-26T23:31:46.807Z,5.88
2023-04-26T23:34:14.602Z,5.90
2023-04-26T23:36:45.077Z,5.94
2023-04-26T23:39:13.014Z,5.96
2023-04-26T23:41:40.960Z,5.95
2023-04-26T23:44:08.746Z,5.97
2023-04-26T23:46:36.592Z,5.94
2023-04-26T23:49:05.828Z,5.90
2023-04-26T23:51:33.615Z,5.82
2023-04-26T23:54:01.545Z,5.73
2023-04-26T23:56:29.338Z,5.63
2023-04-26T23:58:58.328Z,5.56
